Time;durP1;ratioP1;P1;durP2;ratioP2;P2;SDS_P1;SDS_P2;PMS_P1;PMS_P2;Temp;Humidity;BMP_temperature;BMP_pressure;BME280_temperature;BME280_humidity;BME280_pressure;Samples;Min_cycle;Max_cycle;Signal;HPM_P1;HPM_P2
2023/06/12 00:00:05;;;;;;;8.40;5.43;;;;;;;;;;5070402;28;20292;-70
2023/06/12 00:02:31;;;;;;;7.00;5.43;;;;;;;;;;5076938;28;20199;-70
2023/06/12 00:04:57;;;;;;;6.55;5.32;;;;;;;;;;5084312;28;20222;-70
2023/06/12 00:07:25;;;;;;;6.93;5.32;;;;;;;;;;5075732;28;20215;-70
2023/06/12 00:09:51;;;;;;;7.13;5.72;;;;;;;;;;5075901;28;20185;-70
2023/06/12 00:12:16;;;;;;;10.38;5.30;;;;;;;;;;5078520;28;20287;-70
2023/06/12 00:14:42;;;;;;;6.65;5.40;;;;;;;;;;5077857;28;20197;-70
2023/06/12 00:17:07;;;;;;;7.05;4.85;;;;;;;;;;5081702;28;20717;-70
2023/06/12 00:19:33;;;;;;;7.72;5.80;;;;;;;;;;5077893;28;20224;-71
2023/06/12 00:21:58;;;;;;;7.13;5.30;;;;;;;;;;5085096;28;20222;-70
2023/06/12 00:24:23;;;;;;;6.50;5.60;;;;;;;;;;5084323;28;20176;-70
2023/06/12 00:26:49;;;;;;;7.40;5.13;;;;;;;;;;5080605;28;20188;-70
2023/06/12 00:29:14;;;;;;;9.10;6.55;;;;;;;;;;5079218;28;20192;-70
2023/06/12 00:31:40;;;;;;;8.18;5.65;;;;;;;;;;5087817;28;20608;-70
2023/06/12 00:34:05;;;;;;;10.63;5.68;;;;;;;;;;5082473;28;20202;-70
2023/06/12 00:36:30;;;;;;;8.68;5.70;;;;;;;;;;5079311;28;20597;-70
2023/06/12 00:38:56;;;;;;;8.75;5.47;;;;;;;;;;5073409;28;20229;-70
2023/06/12 00:41:21;;;;;;;6.80;5.80;;;;;;;;;;5073035;28;20205;-70
2023/06/12 00:43:46;;;;;;;7.85;5.40;;;;;;;;;;5079947;28;20667;-71
2023/06/12 00:46:12;;;;;;;7.03;5.47;;;;;;;;;;5084362;28;20212;-70
2023/06/12 00:48:40;;;;;;;10.63;5.97;;;;;;;;;;5071357;28;20204;-70
2023/06/12 00:51:08;;;;;;;6.60;5.90;;;;;;;;;;5035046;28;20196;-70
2023/06/12 00:53:34;;;;;;;7.55;5.63;;;;;;;;;;5069296;28;20192;-70
2023/06/12 00:56:00;;;;;;;8.95;5.80;;;;;;;;;;5072167;28;20234;-71
2023/06/12 00:58:25;;;;;;;7.20;5.57;;;;;;;;;;5077793;28;20212;-71
2023/06/12 01:00:54;;;;;;;7.07;5.47;;;;;;;;;;5080030;28;20207;-71
2023/06/12 01:03:21;;;;;;;6.75;5.60;;;;;;;;;;5083067;28;20291;-71
2023/06/12 01:05:47;;;;;;;10.88;5.75;;;;;;;;;;5083769;28;20639;-71
2023/06/12 01:08:35;;;;;;;11.60;6.80;;;;;;;;;;5086502;28;20243;-71
2023/06/12 01:11:05;;;;;;;8.70;5.93;;;;;;;;;;5085193;28;20192;-71
2023/06/12 01:13:31;;;;;;;6.60;5.88;;;;;;;;;;5071407;28;20177;-71
2023/06/12 01:15:56;;;;;;;11.10;6.22;;;;;;;;;;5081197;28;20600;-71
2023/06/12 01:18:22;;;;;;;9.85;6.65;;;;;;;;;;5074345;28;20215;-71
2023/06/12 01:20:53;;;;;;;8.10;6.72;;;;;;;;;;5078137;28;20313;-71
2023/06/12 01:23:51;;;;;;;9.32;6.43;;;;;;;;;;5080222;28;20200;-71
2023/06/12 01:26:37;;;;;;;9.25;6.10;;;;;;;;;;5084979;28;20184;-70
2023/06/12 01:29:36;;;;;;;8.70;6.53;;;;;;;;;;5091990;28;20696;-70
2023/06/12 01:32:12;;;;;;;9.45;6.75;;;;;;;;;;5086924;28;20203;-69
2023/06/12 01:34:53;;;;;;;7.82;6.85;;;;;;;;;;5083619;28;20323;-69
2023/06/12 01:37:31;;;;;;;8.85;6.28;;;;;;;;;;5079035;28;20188;-70
2023/06/12 01:39:59;;;;;;;7.13;5.97;;;;;;;;;;5083599;28;20999;-70
2023/06/12 01:42:26;;;;;;;7.00;6.30;;;;;;;;;;5078759;28;20273;-70
2023/06/12 01:44:51;;;;;;;9.20;6.75;;;;;;;;;;5090303;28;20192;-70
2023/06/12 01:47:17;;;;;;;11.77;6.80;;;;;;;;;;5073593;28;20237;-70
2023/06/12 01:49:42;;;;;;;9.15;6.60;;;;;;;;;;5074493;28;20608;-70
2023/06/12 01:52:08;;;;;;;9.52;6.53;;;;;;;;;;5077213;28;20225;-70
2023/06/12 01:54:33;;;;;;;10.60;6.93;;;;;;;;;;5084473;28;20567;-70
2023/06/12 01:56:59;;;;;;;7.93;6.55;;;;;;;;;;5076131;28;20266;-70
2023/06/12 01:59:24;;;;;;;8.25;6.90;;;;;;;;;;5088741;28;20296;-70
2023/06/12 02:01:50;;;;;;;7.20;6.32;;;;;;;;;;5088953;28;20541;-70
2023/06/12 02:04:17;;;;;;;9.25;6.63;;;;;;;;;;5082113;28;20197;-70
2023/06/12 02:06:42;;;;;;;10.70;7.05;;;;;;;;;;5081344;28;20691;-70
2023/06/12 02:09:08;;;;;;;10.70;7.00;;;;;;;;;;5066333;28;20189;-70
2023/06/12 02:11:33;;;;;;;12.50;7.22;;;;;;;;;;5082355;28;20196;-70
2023/06/12 02:13:58;;;;;;;7.63;6.80;;;;;;;;;;5088810;28;20196;-70
2023/06/12 02:16:24;;;;;;;10.95;6.93;;;;;;;;;;5087286;28;20195;-69
2023/06/12 02:18:49;;;;;;;10.13;6.85;;;;;;;;;;5087931;28;20299;-69
2023/06/12 02:21:15;;;;;;;9.60;6.50;;;;;;;;;;5083666;28;20197;-70
2023/06/12 02:23:41;;;;;;;12.45;6.97;;;;;;;;;;5073581;28;20219;-70
2023/06/12 02:26:07;;;;;;;10.57;7.03;;;;;;;;;;5079777;28;20204;-70
2023/06/12 02:28:32;;;;;;;11.18;7.10;;;;;;;;;;5086096;28;20262;-70
2023/06/12 02:30:57;;;;;;;9.65;6.72;;;;;;;;;;5086497;28;20299;-70
2023/06/12 02:33:25;;;;;;;9.95;6.80;;;;;;;;;;5088308;28;20207;-70
2023/06/12 02:35:51;;;;;;;9.13;7.10;;;;;;;;;;5076517;28;20191;-71
2023/06/12 02:38:16;;;;;;;8.20;6.35;;;;;;;;;;5087217;28;20312;-70
2023/06/12 02:40:42;;;;;;;13.50;7.30;;;;;;;;;;5079305;28;20203;-70
2023/06/12 02:43:07;;;;;;;11.68;7.38;;;;;;;;;;5087243;28;20695;-70
2023/06/12 02:45:32;;;;;;;8.55;6.57;;;;;;;;;;5079429;28;20205;-70
2023/06/12 02:47:58;;;;;;;13.70;7.20;;;;;;;;;;5078147;28;20188;-70
2023/06/12 02:50:23;;;;;;;14.75;6.97;;;;;;;;;;5084012;28;20195;-70
2023/06/12 02:52:50;;;;;;;10.48;7.30;;;;;;;;;;5076590;28;20283;-70
2023/06/12 02:55:15;;;;;;;8.50;6.43;;;;;;;;;;5085434;28;20186;-70
2023/06/12 02:57:40;;;;;;;8.60;6.80;;;;;;;;;;5083490;28;20196;-71
2023/06/12 03:00:07;;;;;;;10.35;6.53;;;;;;;;;;5085346;28;20223;-70
2023/06/12 03:02:32;;;;;;;12.45;6.90;;;;;;;;;;5085987;28;20260;-70
2023/06/12 03:04:59;;;;;;;10.10;6.93;;;;;;;;;;5077919;28;20192;-70
2023/06/12 03:07:26;;;;;;;10.25;7.22;;;;;;;;;;5084261;28;20196;-71
2023/06/12 03:09:52;;;;;;;8.40;6.82;;;;;;;;;;5084422;28;20188;-70
2023/06/12 03:12:17;;;;;;;9.00;6.65;;;;;;;;;;5081198;28;20207;-70
2023/06/12 03:14:44;;;;;;;9.77;6.75;;;;;;;;;;5084122;28;20196;-70
2023/06/12 03:17:09;;;;;;;10.50;6.25;;;;;;;;;;5083124;28;20199;-70
2023/06/12 03:19:35;;;;;;;9.15;6.53;;;;;;;;;;5081531;28;20243;-70
2023/06/12 03:22:00;;;;;;;8.40;6.35;;;;;;;;;;5082399;28;20235;-70
2023/06/12 03:24:31;;;;;;;9.00;6.55;;;;;;;;;;5077742;28;20208;-70
2023/06/12 03:27:00;;;;;;;10.85;6.32;;;;;;;;;;5068579;28;20660;-71
2023/06/12 03:29:25;;;;;;;10.38;6.60;;;;;;;;;;5081214;28;20188;-70
2023/06/12 03:31:53;;;;;;;11.65;6.47;;;;;;;;;;5088511;28;20595;-70
2023/06/12 03:34:19;;;;;;;14.18;6.70;;;;;;;;;;5087807;28;20244;-70
2023/06/12 03:36:44;;;;;;;8.80;6.03;;;;;;;;;;5087193;28;20184;-71
2023/06/12 03:39:10;;;;;;;9.13;6.40;;;;;;;;;;5077537;28;20234;-70
2023/06/12 03:41:35;;;;;;;12.40;6.55;;;;;;;;;;5084121;28;20241;-71
2023/06/12 03:44:01;;;;;;;7.57;5.88;;;;;;;;;;5072142;28;20181;-70
2023/06/12 03:46:30;;;;;;;10.65;5.97;;;;;;;;;;5078795;28;20202;-70
2023/06/12 03:48:56;;;;;;;7.18;5.25;;;;;;;;;;5071007;28;20177;-70
2023/06/12 03:51:21;;;;;;;10.68;5.95;;;;;;;;;;5061650;28;20206;-70
2023/06/12 03:53:47;;;;;;;7.80;5.63;;;;;;;;;;5076480;28;20192;-71
2023/06/12 03:56:12;;;;;;;9.68;5.68;;;;;;;;;;5084371;28;20219;-70
2023/06/12 03:58:37;;;;;;;10.85;5.75;;;;;;;;;;5084008;28;20626;-70
2023/06/12 04:01:03;;;;;;;9.82;6.05;;;;;;;;;;5087401;28;20383;-70
2023/06/12 04:03:28;;;;;;;7.28;5.90;;;;;;;;;;5087300;28;20184;-71
2023/06/12 04:05:54;;;;;;;7.93;5.72;;;;;;;;;;5080763;28;20184;-71
2023/06/12 04:08:20;;;;;;;9.48;5.47;;;;;;;;;;5079547;28;20180;-70
2023/06/12 04:10:46;;;;;;;5.78;5.18;;;;;;;;;;5083902;28;20216;-72
2023/06/12 04:13:11;;;;;;;9.02;5.35;;;;;;;;;;5074229;28;20239;-71
2023/06/12 04:15:38;;;;;;;9.00;5.40;;;;;;;;;;5084537;28;20581;-70
2023/06/12 04:18:05;;;;;;;9.85;5.50;;;;;;;;;;5073998;28;20180;-71
2023/06/12 04:20:32;;;;;;;10.60;5.53;;;;;;;;;;5086224;28;20549;-71
2023/06/12 04:22:58;;;;;;;7.70;5.32;;;;;;;;;;5080664;28;20508;-70
2023/06/12 04:25:25;;;;;;;8.32;5.60;;;;;;;;;;5078556;28;20211;-70
2023/06/12 04:27:51;;;;;;;9.13;5.50;;;;;;;;;;5082985;28;20272;-71
2023/06/12 04:30:16;;;;;;;10.52;5.15;;;;;;;;;;5081256;28;20263;-71
2023/06/12 04:32:42;;;;;;;10.77;5.70;;;;;;;;;;5076071;28;20271;-73
2023/06/12 04:35:08;;;;;;;6.97;5.45;;;;;;;;;;5081068;28;20260;-72
2023/06/12 04:37:33;;;;;;;7.78;5.15;;;;;;;;;;5077025;28;20628;-70
2023/06/12 04:39:59;;;;;;;7.57;5.28;;;;;;;;;;5074084;28;20597;-70
2023/06/12 04:42:26;;;;;;;11.98;5.72;;;;;;;;;;5074629;28;20200;-72
2023/06/12 04:44:52;;;;;;;10.57;6.22;;;;;;;;;;5092922;28;20610;-70
2023/06/12 04:47:17;;;;;;;7.60;5.15;;;;;;;;;;5078825;28;20225;-71
2023/06/12 04:49:45;;;;;;;7.72;5.10;;;;;;;;;;5066447;28;20214;-71
2023/06/12 04:52:12;;;;;;;12.73;5.68;;;;;;;;;;5085806;28;20187;-70
2023/06/12 04:54:44;;;;;;;9.15;4.90;;;;;;;;;;5073405;28;20239;-70
2023/06/12 04:57:13;;;;;;;10.48;5.20;;;;;;;;;;5082174;28;20232;-70
2023/06/12 04:59:39;;;;;;;7.47;5.75;;;;;;;;;;5079953;28;20212;-70
2023/06/12 05:02:10;;;;;;;6.50;5.35;;;;;;;;;;5103152;28;20340;-70
2023/06/12 05:04:37;;;;;;;7.40;4.82;;;;;;;;;;5081642;28;20196;-70
2023/06/12 05:07:04;;;;;;;6.13;4.63;;;;;;;;;;5081993;28;20200;-70
2023/06/12 05:09:30;;;;;;;11.82;5.22;;;;;;;;;;5088093;28;20245;-72
2023/06/12 05:11:56;;;;;;;10.45;5.40;;;;;;;;;;5083574;28;20628;-72
2023/06/12 05:14:21;;;;;;;7.20;4.88;;;;;;;;;;5087440;28;20202;-71
2023/06/12 05:16:47;;;;;;;7.75;4.50;;;;;;;;;;5082540;28;20531;-71
2023/06/12 05:19:12;;;;;;;9.38;5.20;;;;;;;;;;5089284;28;20264;-71
2023/06/12 05:21:41;;;;;;;9.63;5.18;;;;;;;;;;5079363;28;20189;-72
2023/06/12 05:24:07;;;;;;;9.50;5.38;;;;;;;;;;5078286;28;20203;-71
2023/06/12 05:26:32;;;;;;;7.20;4.63;;;;;;;;;;5087268;28;20200;-71
2023/06/12 05:28:57;;;;;;;9.30;5.20;;;;;;;;;;5077580;28;20274;-71
2023/06/12 05:31:23;;;;;;;9.57;5.00;;;;;;;;;;5079535;28;20636;-71
2023/06/12 05:33:48;;;;;;;8.45;4.80;;;;;;;;;;5082935;28;20195;-71
2023/06/12 05:36:13;;;;;;;6.97;5.03;;;;;;;;;;5084678;28;20647;-71
2023/06/12 05:38:45;;;;;;;8.55;5.45;;;;;;;;;;5085000;28;20282;-70
2023/06/12 05:41:12;;;;;;;7.43;5.30;;;;;;;;;;5074437;28;20185;-71
2023/06/12 05:43:39;;;;;;;10.27;5.53;;;;;;;;;;5075761;28;20231;-71
2023/06/12 05:46:04;;;;;;;5.97;4.65;;;;;;;;;;5083052;28;20215;-71
2023/06/12 05:48:30;;;;;;;8.25;5.18;;;;;;;;;;5082777;28;20223;-71
2023/06/12 05:50:56;;;;;;;6.65;4.82;;;;;;;;;;5082375;28;20272;-70
2023/06/12 05:53:21;;;;;;;9.32;5.60;;;;;;;;;;5085031;28;20226;-70
2023/06/12 05:55:46;;;;;;;10.80;5.20;;;;;;;;;;5086280;28;20611;-71
2023/06/12 05:58:12;;;;;;;6.90;5.30;;;;;;;;;;5080440;28;20227;-71
2023/06/12 06:00:38;;;;;;;12.57;5.10;;;;;;;;;;5078367;28;20212;-71
2023/06/12 06:03:04;;;;;;;6.43;4.63;;;;;;;;;;5083349;28;20612;-71
2023/06/12 06:05:32;;;;;;;7.40;5.13;;;;;;;;;;5067904;28;20414;-71
2023/06/12 06:07:58;;;;;;;9.43;5.10;;;;;;;;;;5087848;28;20195;-71
2023/06/12 06:10:23;;;;;;;7.90;5.47;;;;;;;;;;5083674;28;20185;-71
2023/06/12 06:12:50;;;;;;;8.52;5.97;;;;;;;;;;5080939;28;20192;-72
2023/06/12 06:15:15;;;;;;;8.77;5.35;;;;;;;;;;5081288;28;20217;-72
2023/06/12 06:17:41;;;;;;;7.43;5.20;;;;;;;;;;5079782;28;20573;-71
2023/06/12 06:20:07;;;;;;;8.00;5.07;;;;;;;;;;5071991;28;20228;-71
2023/06/12 06:22:33;;;;;;;12.70;5.75;;;;;;;;;;5075239;28;20200;-71
2023/06/12 06:24:58;;;;;;;12.98;5.72;;;;;;;;;;5082803;28;20563;-71
2023/06/12 06:27:23;;;;;;;7.80;5.43;;;;;;;;;;5084253;28;20238;-71
2023/06/12 06:29:49;;;;;;;11.88;5.35;;;;;;;;;;5078939;28;20196;-72
2023/06/12 06:32:14;;;;;;;8.13;5.07;;;;;;;;;;5079134;28;20533;-71
2023/06/12 06:34:40;;;;;;;9.40;5.13;;;;;;;;;;5084794;28;20192;-71
2023/06/12 06:37:06;;;;;;;11.63;5.10;;;;;;;;;;5082432;28;20215;-71
2023/06/12 06:39:32;;;;;;;9.02;5.18;;;;;;;;;;5072296;28;20614;-72
2023/06/12 06:41:57;;;;;;;13.57;5.20;;;;;;;;;;5084653;28;20211;-71
2023/06/12 06:44:22;;;;;;;10.77;5.65;;;;;;;;;;5088931;28;20260;-71
2023/06/12 06:46:49;;;;;;;16.42;5.43;;;;;;;;;;5083929;28;20274;-71
2023/06/12 06:49:14;;;;;;;10.70;5.32;;;;;;;;;;5087185;28;20541;-71
2023/06/12 06:51:39;;;;;;;8.15;5.40;;;;;;;;;;5085742;28;20188;-71
2023/06/12 06:54:05;;;;;;;7.60;5.30;;;;;;;;;;5080245;28;20591;-71
2023/06/12 06:56:30;;;;;;;9.30;6.25;;;;;;;;;;5076888;28;20184;-71
2023/06/12 06:58:56;;;;;;;9.80;6.03;;;;;;;;;;5085799;28;20279;-72
2023/06/12 07:01:22;;;;;;;10.20;6.13;;;;;;;;;;5094390;28;20208;-71
2023/06/12 07:03:47;;;;;;;14.13;5.85;;;;;;;;;;5071330;28;20599;-71
2023/06/12 07:06:12;;;;;;;11.23;5.70;;;;;;;;;;5085312;28;20184;-71
2023/06/12 07:08:38;;;;;;;11.13;5.55;;;;;;;;;;5084718;28;20279;-71
2023/06/12 07:11:03;;;;;;;8.75;5.57;;;;;;;;;;5077080;28;20218;-70
2023/06/12 07:13:29;;;;;;;8.15;5.30;;;;;;;;;;5086848;28;20203;-71
2023/06/12 07:15:54;;;;;;;6.78;5.50;;;;;;;;;;5085292;28;20216;-70
2023/06/12 07:18:20;;;;;;;12.88;5.50;;;;;;;;;;5070040;28;20544;-70
2023/06/12 07:20:45;;;;;;;7.55;5.97;;;;;;;;;;5084428;28;20192;-70
2023/06/12 07:23:11;;;;;;;10.63;5.75;;;;;;;;;;5086488;28;20203;-71
2023/06/12 07:25:37;;;;;;;10.27;6.22;;;;;;;;;;5076750;28;20197;-70
2023/06/12 07:28:02;;;;;;;7.70;5.75;;;;;;;;;;5072730;28;20237;-70
2023/06/12 07:30:28;;;;;;;9.77;6.10;;;;;;;;;;5073894;28;20568;-70
2023/06/12 07:32:53;;;;;;;10.70;5.70;;;;;;;;;;5082644;28;20195;-70
2023/06/12 07:35:19;;;;;;;7.13;6.38;;;;;;;;;;5076598;28;20351;-70
2023/06/12 07:37:45;;;;;;;7.32;6.10;;;;;;;;;;5080224;28;20256;-71
2023/06/12 07:40:12;;;;;;;7.20;5.68;;;;;;;;;;5079926;28;20217;-70
2023/06/12 07:42:38;;;;;;;9.57;5.80;;;;;;;;;;5067800;28;20189;-70
2023/06/12 07:45:04;;;;;;;10.90;6.40;;;;;;;;;;5075368;28;20258;-70
2023/06/12 07:47:29;;;;;;;8.48;5.75;;;;;;;;;;5086225;28;20203;-70
2023/06/12 07:49:54;;;;;;;8.00;6.28;;;;;;;;;;5077237;28;20628;-70
2023/06/12 07:52:20;;;;;;;8.57;5.70;;;;;;;;;;5071162;28;20200;-70
2023/06/12 07:54:47;;;;;;;10.98;5.70;;;;;;;;;;5085032;28;20226;-70
2023/06/12 07:57:13;;;;;;;7.63;5.68;;;;;;;;;;5078059;28;20238;-71
2023/06/12 07:59:39;;;;;;;8.90;5.78;;;;;;;;;;5079993;28;20505;-70
2023/06/12 08:02:04;;;;;;;7.07;6.25;;;;;;;;;;5073680;28;20209;-70
2023/06/12 08:04:30;;;;;;;13.65;5.80;;;;;;;;;;5087853;28;20194;-71
2023/06/12 08:06:56;;;;;;;9.52;5.97;;;;;;;;;;5074937;28;20223;-71
2023/06/12 08:09:21;;;;;;;10.43;5.53;;;;;;;;;;5070119;28;20197;-69
2023/06/12 08:11:46;;;;;;;14.07;6.28;;;;;;;;;;5086681;28;20215;-70
2023/06/12 08:14:12;;;;;;;10.13;6.00;;;;;;;;;;5071807;28;20791;-70
2023/06/12 08:16:37;;;;;;;10.63;5.78;;;;;;;;;;5084213;28;20207;-69
2023/06/12 08:19:03;;;;;;;7.30;5.80;;;;;;;;;;5073417;28;20773;-72
2023/06/12 08:21:29;;;;;;;7.97;6.30;;;;;;;;;;5078309;28;20188;-70
2023/06/12 08:23:54;;;;;;;8.50;5.35;;;;;;;;;;5079076;28;20184;-69
2023/06/12 08:26:20;;;;;;;10.07;5.72;;;;;;;;;;5084417;28;20271;-71
2023/06/12 08:28:49;;;;;;;6.88;5.72;;;;;;;;;;5087141;28;20267;-70
2023/06/12 08:31:15;;;;;;;11.95;6.28;;;;;;;;;;5077670;28;20195;-69
2023/06/12 08:33:40;;;;;;;7.45;5.68;;;;;;;;;;5074637;28;20184;-69
2023/06/12 08:36:06;;;;;;;7.93;6.03;;;;;;;;;;5073610;28;20200;-70
2023/06/12 08:38:31;;;;;;;8.80;5.72;;;;;;;;;;5077703;28;20603;-70
2023/06/12 08:40:59;;;;;;;6.68;5.85;;;;;;;;;;5079247;28;20510;-70
2023/06/12 08:43:26;;;;;;;10.45;6.03;;;;;;;;;;5075625;28;20196;-71
2023/06/12 08:45:53;;;;;;;8.00;5.90;;;;;;;;;;5077968;28;20670;-70
2023/06/12 08:48:20;;;;;;;7.72;5.80;;;;;;;;;;5085152;28;20211;-70
2023/06/12 08:50:47;;;;;;;8.35;6.13;;;;;;;;;;5068873;28;20188;-70
2023/06/12 08:53:14;;;;;;;9.90;5.97;;;;;;;;;;5087261;28;20184;-70
2023/06/12 08:55:39;;;;;;;7.40;6.07;;;;;;;;;;5069747;28;20193;-70
2023/06/12 08:58:09;;;;;;;8.57;5.45;;;;;;;;;;5071643;28;20193;-71
2023/06/12 09:00:35;;;;;;;8.85;5.97;;;;;;;;;;5086210;28;20311;-70
2023/06/12 09:03:04;;;;;;;6.80;5.80;;;;;;;;;;5078081;28;20196;-70
2023/06/12 09:05:33;;;;;;;9.68;6.20;;;;;;;;;;5085751;28;20187;-71
2023/06/12 09:08:05;;;;;;;7.35;6.45;;;;;;;;;;5077838;28;20198;-70
2023/06/12 09:10:32;;;;;;;8.65;6.13;;;;;;;;;;5076849;28;20210;-70
2023/06/12 09:12:58;;;;;;;9.55;6.65;;;;;;;;;;5088393;28;20208;-72
2023/06/12 09:15:24;;;;;;;10.07;6.05;;;;;;;;;;5087065;28;20220;-70
2023/06/12 09:17:54;;;;;;;8.32;6.30;;;;;;;;;;5067876;28;20385;-71
2023/06/12 09:20:32;;;;;;;14.15;6.55;;;;;;;;;;5071171;28;20315;-70
2023/06/12 09:22:59;;;;;;;10.15;6.32;;;;;;;;;;5085203;28;20216;-69
2023/06/12 09:25:44;;;;;;;11.15;6.82;;;;;;;;;;5078001;28;20180;-70
2023/06/12 09:28:10;;;;;;;8.98;6.47;;;;;;;;;;5067825;28;20551;-70
2023/06/12 09:30:43;;;;;;;7.15;6.45;;;;;;;;;;5081728;28;20258;-70
2023/06/12 09:33:08;;;;;;;11.27;6.43;;;;;;;;;;5075061;28;20196;-70
2023/06/12 09:36:00;;;;;;;9.23;6.70;;;;;;;;;;5083680;28;20589;-69
2023/06/12 09:38:32;;;;;;;7.68;6.25;;;;;;;;;;5071095;28;20698;-70
2023/06/12 09:41:00;;;;;;;7.00;6.30;;;;;;;;;;5075372;28;20199;-71
2023/06/12 09:43:28;;;;;;;13.50;6.82;;;;;;;;;;5086811;28;20191;-70
2023/06/12 09:45:53;;;;;;;8.13;6.43;;;;;;;;;;5068466;28;20543;-70
2023/06/12 09:48:19;;;;;;;7.47;6.68;;;;;;;;;;5071405;28;20222;-70
2023/06/12 09:50:46;;;;;;;7.53;6.72;;;;;;;;;;5072466;28;20663;-70
2023/06/12 09:53:16;;;;;;;10.52;6.65;;;;;;;;;;5070766;28;20254;-72
2023/06/12 09:55:44;;;;;;;7.78;6.60;;;;;;;;;;5075045;28;20184;-71
2023/06/12 09:58:13;;;;;;;8.68;6.75;;;;;;;;;;5078433;28;20668;-71
2023/06/12 10:00:38;;;;;;;9.18;6.68;;;;;;;;;;5075132;28;20257;-71
2023/06/12 10:03:06;;;;;;;8.73;6.70;;;;;;;;;;5091237;28;20659;-70
2023/06/12 10:05:37;;;;;;;8.68;6.65;;;;;;;;;;5074990;28;20202;-71
2023/06/12 10:08:06;;;;;;;12.40;6.20;;;;;;;;;;5081978;28;20184;-69
2023/06/12 10:10:34;;;;;;;6.93;6.20;;;;;;;;;;5076216;28;20282;-70
2023/06/12 10:13:01;;;;;;;7.35;6.13;;;;;;;;;;5081837;28;20543;-69
2023/06/12 10:15:28;;;;;;;7.68;5.82;;;;;;;;;;5071526;28;20189;-70
2023/06/12 10:17:53;;;;;;;9.75;6.25;;;;;;;;;;5087798;28;20639;-71
2023/06/12 10:20:20;;;;;;;9.10;5.75;;;;;;;;;;5077973;28;20227;-71
2023/06/12 10:22:46;;;;;;;9.75;6.00;;;;;;;;;;5075694;28;20271;-70
2023/06/12 10:25:13;;;;;;;7.57;5.90;;;;;;;;;;5090278;28;20177;-69
2023/06/12 10:27:39;;;;;;;10.23;6.00;;;;;;;;;;5075907;28;20715;-71
2023/06/12 10:30:10;;;;;;;6.10;5.50;;;;;;;;;;5071499;28;20571;-71
2023/06/12 10:32:36;;;;;;;6.68;5.80;;;;;;;;;;5088674;28;20241;-71
2023/06/12 10:35:01;;;;;;;5.38;4.85;;;;;;;;;;5091370;28;20192;-71
2023/06/12 10:37:32;;;;;;;7.38;4.95;;;;;;;;;;5079815;28;20184;-72
2023/06/12 10:40:17;;;;;;;6.88;4.80;;;;;;;;;;5086412;28;20233;-70
2023/06/12 10:42:45;;;;;;;6.47;5.18;;;;;;;;;;5083452;28;20196;-71
2023/06/12 10:45:30;;;;;;;6.30;4.78;;;;;;;;;;5070707;28;20181;-71
2023/06/12 10:48:04;;;;;;;6.32;5.72;;;;;;;;;;5078237;28;20188;-71
2023/06/12 10:50:30;;;;;;;5.43;4.93;;;;;;;;;;5080037;28;20184;-71
2023/06/12 10:52:59;;;;;;;5.93;5.38;;;;;;;;;;5081672;28;20691;-70
2023/06/12 10:55:31;;;;;;;7.88;5.72;;;;;;;;;;5081052;28;20199;-71
2023/06/12 10:58:03;;;;;;;7.80;4.75;;;;;;;;;;5078830;28;20484;-70
2023/06/12 11:00:33;;;;;;;7.97;5.03;;;;;;;;;;5068807;28;20216;-69
2023/06/12 11:03:12;;;;;;;5.60;5.10;;;;;;;;;;5078372;28;20215;-71
2023/06/12 11:05:39;;;;;;;6.13;4.93;;;;;;;;;;5068505;28;20581;-70
2023/06/12 11:08:08;;;;;;;8.43;4.82;;;;;;;;;;5073753;28;20555;-71
2023/06/12 11:10:35;;;;;;;8.43;5.47;;;;;;;;;;5076088;28;20196;-72
2023/06/12 11:13:02;;;;;;;8.68;5.55;;;;;;;;;;5087378;28;20222;-73
2023/06/12 11:15:32;;;;;;;10.00;5.45;;;;;;;;;;5070138;28;20191;-71
2023/06/12 11:17:57;;;;;;;6.00;5.13;;;;;;;;;;5073831;28;20192;-70
2023/06/12 11:20:23;;;;;;;5.95;4.75;;;;;;;;;;5074839;28;20240;-70
2023/06/12 11:22:58;;;;;;;4.90;4.50;;;;;;;;;;5083523;28;20180;-70
2023/06/12 11:25:25;;;;;;;7.53;4.90;;;;;;;;;;5069554;28;20184;-73
2023/06/12 11:27:52;;;;;;;5.75;4.85;;;;;;;;;;5080165;28;20188;-72
2023/06/12 11:30:17;;;;;;;9.57;5.55;;;;;;;;;;5075615;28;20211;-70
2023/06/12 11:32:42;;;;;;;6.35;5.38;;;;;;;;;;5075438;28;20605;-71
2023/06/12 11:35:10;;;;;;;6.32;4.80;;;;;;;;;;5072605;28;20196;-70
2023/06/12 11:37:40;;;;;;;6.63;4.80;;;;;;;;;;5076956;28;20571;-73
2023/06/12 11:40:11;;;;;;;5.78;4.85;;;;;;;;;;5068090;28;20422;-73
2023/06/12 11:42:42;;;;;;;5.47;4.85;;;;;;;;;;5077373;28;20283;-72
2023/06/12 11:45:16;;;;;;;6.38;5.25;;;;;;;;;;5081271;28;20184;-71
2023/06/12 11:47:43;;;;;;;6.50;5.07;;;;;;;;;;5074225;28;20188;-71
2023/06/12 11:50:12;;;;;;;7.35;5.05;;;;;;;;;;5085442;28;20264;-71
2023/06/12 11:52:39;;;;;;;5.97;5.38;;;;;;;;;;5082378;28;20200;-71
2023/06/12 11:55:08;;;;;;;6.05;5.20;;;;;;;;;;5086548;28;20282;-71
2023/06/12 11:57:35;;;;;;;6.38;5.50;;;;;;;;;;5073393;28;20193;-71
2023/06/12 12:00:14;;;;;;;6.25;5.57;;;;;;;;;;5081535;28;20223;-69
2023/06/12 12:02:41;;;;;;;6.57;5.70;;;;;;;;;;5074104;28;20270;-70
2023/06/12 12:05:11;;;;;;;5.97;5.47;;;;;;;;;;5069330;28;20237;-70
2023/06/12 12:07:38;;;;;;;7.00;5.65;;;;;;;;;;5075488;28;20271;-71
2023/06/12 12:10:13;;;;;;;9.80;5.68;;;;;;;;;;5067794;28;20184;-70
2023/06/12 12:12:49;;;;;;;9.45;5.88;;;;;;;;;;5074862;28;20196;-71
2023/06/12 12:15:22;;;;;;;6.03;5.22;;;;;;;;;;5081671;28;20205;-72
2023/06/12 12:17:48;;;;;;;6.20;5.50;;;;;;;;;;5073723;28;20280;-71
2023/06/12 12:20:21;;;;;;;8.30;5.53;;;;;;;;;;5080343;28;20602;-72
2023/06/12 12:22:49;;;;;;;12.30;5.38;;;;;;;;;;5076973;28;20199;-70
2023/06/12 12:25:16;;;;;;;6.18;5.50;;;;;;;;;;5077965;28;20192;-72
2023/06/12 12:27:44;;;;;;;6.32;5.82;;;;;;;;;;5068601;28;20297;-71
2023/06/12 12:30:10;;;;;;;7.93;5.75;;;;;;;;;;5076568;28;20184;-70
2023/06/12 12:32:36;;;;;;;8.27;6.00;;;;;;;;;;5073006;28;20612;-71
2023/06/12 12:35:03;;;;;;;8.43;5.75;;;;;;;;;;5083105;28;20184;-71
2023/06/12 12:37:28;;;;;;;7.10;5.40;;;;;;;;;;5070336;28;20551;-70
2023/06/12 12:39:54;;;;;;;6.97;5.53;;;;;;;;;;5078501;28;20223;-69
2023/06/12 12:42:19;;;;;;;6.25;5.38;;;;;;;;;;5077439;28;20194;-70
2023/06/12 12:44:45;;;;;;;6.25;5.60;;;;;;;;;;5080133;28;20186;-70
2023/06/12 12:47:10;;;;;;;8.18;6.53;;;;;;;;;;5078198;28;20191;-70
2023/06/12 12:49:35;;;;;;;7.78;5.53;;;;;;;;;;5086115;28;20180;-70
2023/06/12 12:52:01;;;;;;;8.55;5.97;;;;;;;;;;5076420;28;20194;-71
2023/06/12 12:54:26;;;;;;;8.20;6.07;;;;;;;;;;5078113;28;20318;-72
2023/06/12 12:56:52;;;;;;;7.43;6.28;;;;;;;;;;5070385;28;20207;-72
2023/06/12 12:59:17;;;;;;;10.93;6.38;;;;;;;;;;5075213;28;20631;-70
2023/06/12 13:01:43;;;;;;;8.15;5.85;;;;;;;;;;5078212;28;20310;-72
2023/06/12 13:04:08;;;;;;;6.72;6.00;;;;;;;;;;5070798;28;20207;-71
2023/06/12 13:06:34;;;;;;;6.40;5.80;;;;;;;;;;5066957;28;20774;-72
2023/06/12 13:09:00;;;;;;;7.63;6.32;;;;;;;;;;5079703;28;20238;-71
2023/06/12 13:11:26;;;;;;;6.40;5.78;;;;;;;;;;5071510;28;20267;-71
2023/06/12 13:13:51;;;;;;;7.38;6.30;;;;;;;;;;5082926;28;20314;-71
2023/06/12 13:16:18;;;;;;;7.75;6.32;;;;;;;;;;5077389;28;20215;-72
2023/06/12 13:18:43;;;;;;;6.60;6.00;;;;;;;;;;5075571;28;20188;-70
2023/06/12 13:21:08;;;;;;;9.65;6.50;;;;;;;;;;5086589;28;20192;-70
2023/06/12 13:23:34;;;;;;;7.07;6.38;;;;;;;;;;5078138;28;20195;-72
2023/06/12 13:25:59;;;;;;;7.50;6.55;;;;;;;;;;5076275;28;20263;-70
2023/06/12 13:28:25;;;;;;;14.80;7.13;;;;;;;;;;5085372;28;20188;-71
2023/06/12 13:30:50;;;;;;;8.15;6.45;;;;;;;;;;5076933;28;20188;-70
2023/06/12 13:33:15;;;;;;;8.93;6.78;;;;;;;;;;5078917;28;20321;-72
2023/06/12 13:35:41;;;;;;;10.35;6.90;;;;;;;;;;5087962;28;20200;-70
2023/06/12 13:38:06;;;;;;;7.20;6.50;;;;;;;;;;5080495;28;20192;-70
2023/06/12 13:40:32;;;;;;;7.38;6.38;;;;;;;;;;5072676;28;20290;-70
2023/06/12 13:42:57;;;;;;;9.90;6.50;;;;;;;;;;5079771;28;20199;-70
2023/06/12 13:45:22;;;;;;;7.38;6.72;;;;;;;;;;5083196;28;20522;-70
2023/06/12 13:47:48;;;;;;;7.13;6.47;;;;;;;;;;5085357;28;20537;-70
2023/06/12 13:50:13;;;;;;;7.97;6.70;;;;;;;;;;5075008;28;20215;-70
2023/06/12 13:52:40;;;;;;;10.00;6.65;;;;;;;;;;5080573;28;20181;-69
2023/06/12 13:55:05;;;;;;;8.55;6.13;;;;;;;;;;5080162;28;20550;-70
2023/06/12 13:57:31;;;;;;;9.50;6.63;;;;;;;;;;5070947;28;20224;-70
2023/06/12 13:59:57;;;;;;;7.60;6.85;;;;;;;;;;5080951;28;20717;-70
2023/06/12 14:02:22;;;;;;;7.43;6.72;;;;;;;;;;5082774;28;20212;-70
2023/06/12 14:04:48;;;;;;;9.95;7.63;;;;;;;;;;5085936;28;20184;-71
2023/06/12 14:07:14;;;;;;;7.57;6.28;;;;;;;;;;5078335;28;20304;-70
2023/06/12 14:09:39;;;;;;;8.30;6.80;;;;;;;;;;5074221;28;20188;-70
2023/06/12 14:12:06;;;;;;;8.70;6.63;;;;;;;;;;5077765;28;20876;-69
2023/06/12 14:14:31;;;;;;;7.20;6.50;;;;;;;;;;5086005;28;20672;-70
2023/06/12 14:16:57;;;;;;;8.52;7.13;;;;;;;;;;5082256;28;20179;-70
2023/06/12 14:19:22;;;;;;;9.35;6.82;;;;;;;;;;5076285;28;20265;-70
2023/06/12 14:21:47;;;;;;;7.80;6.93;;;;;;;;;;5077551;28;20589;-70
2023/06/12 14:24:13;;;;;;;7.10;6.50;;;;;;;;;;5077887;28;20555;-70
2023/06/12 14:26:38;;;;;;;12.52;7.22;;;;;;;;;;5073834;28;20200;-71
2023/06/12 14:29:03;;;;;;;8.63;7.22;;;;;;;;;;5079331;28;20222;-69
2023/06/12 14:31:29;;;;;;;7.97;6.80;;;;;;;;;;5078712;28;20643;-69
2023/06/12 14:33:54;;;;;;;7.65;6.90;;;;;;;;;;5084480;28;20275;-72
2023/06/12 14:36:20;;;;;;;10.85;6.85;;;;;;;;;;5083380;28;20191;-70
2023/06/12 14:38:45;;;;;;;8.15;6.75;;;;;;;;;;5077591;28;20623;-70